createdAt,value
2018-09-23T00:00:12.420Z,63.2
2018-09-23T00:01:01.972Z,63.2
2018-09-23T00:01:52.907Z,63.2
2018-09-23T00:02:42.939Z,63.1
2018-09-23T00:03:32.735Z,63.2
2018-09-23T00:04:23.066Z,63.1
2018-09-23T00:05:13.403Z,63.1
2018-09-23T00:06:02.918Z,63.1
2018-09-23T00:06:53.298Z,63.1
2018-09-23T00:07:43.324Z,63.1
2018-09-23T00:08:33.383Z,63.1
2018-09-23T00:09:23.181Z,63.1
2018-09-23T00:10:13.499Z,63.1
2018-09-23T00:11:03.297Z,63.1
2018-09-23T00:11:53.655Z,63.1
2018-09-23T00:12:43.703Z,63.1
2018-09-23T00:13:33.741Z,63.1
2018-09-23T00:14:23.821Z,63
2018-09-23T00:15:14.243Z,63.1
2018-09-23T00:16:03.651Z,63.1
2018-09-23T00:16:53.733Z,63
2018-09-23T00:17:44.048Z,63
2018-09-23T00:18:34.413Z,63
2018-09-23T00:19:23.941Z,63
2018-09-23T00:20:13.978Z,63
2018-09-23T00:21:04.089Z,63
2018-09-23T00:21:54.390Z,63
2018-09-23T00:22:44.203Z,62.9
2018-09-23T00:23:34.523Z,62.9
2018-09-23T00:24:24.025Z,63
2018-09-23T00:25:14.100Z,62.9
2018-09-23T00:26:04.425Z,62.9
2018-09-23T00:26:54.780Z,62.9
2018-09-23T00:27:45.130Z,62.9
2018-09-23T00:28:34.900Z,62.9
2018-09-23T00:29:24.687Z,62.9
2018-09-23T00:30:13.883Z,62.9
2018-09-23T00:31:04.590Z,62.9
2018-09-23T00:31:54.872Z,62.9
2018-09-23T00:32:44.923Z,62.9
2018-09-23T00:33:34.709Z,62.9
2018-09-23T00:34:24.491Z,62.9
2018-09-23T00:35:15.749Z,62.9
2018-09-23T00:36:05.786Z,62.9
2018-09-23T00:36:54.684Z,62.8
2018-09-23T00:56:00.535Z,62.7
2018-09-23T00:56:50.161Z,62.6
2018-09-23T00:57:40.503Z,62.7
2018-09-23T00:58:30.965Z,62.6
2018-09-23T00:59:21.003Z,62.6
2018-09-23T01:00:10.725Z,62.6
2018-09-23T01:01:01.596Z,62.6
2018-09-23T01:01:50.567Z,62.6
2018-09-23T01:02:41.185Z,62.6
2018-09-23T01:03:30.964Z,62.6
2018-09-23T01:04:21.275Z,62.6
2018-09-23T01:05:11.067Z,62.6
2018-09-23T01:06:01.677Z,62.6
2018-09-23T01:06:51.729Z,62.6
2018-09-23T01:07:41.287Z,62.6
2018-09-23T01:08:31.627Z,62.6
2018-09-23T01:09:21.667Z,62.6
2018-09-23T01:10:11.755Z,62.6
2018-09-23T01:11:02.581Z,62.6
2018-09-23T01:11:50.955Z,62.5
2018-09-23T01:12:42.139Z,62.6
2018-09-23T01:13:32.119Z,62.5
2018-09-23T01:14:21.749Z,62.5
2018-09-23T01:15:11.579Z,62.5
2018-09-23T01:16:01.316Z,62.5
2018-09-23T01:16:52.548Z,62.5
2018-09-23T01:17:42.004Z,62.5
2018-09-23T01:18:31.779Z,62.5
2018-09-23T01:19:22.128Z,62.4
2018-09-23T01:20:11.906Z,62.4
2018-09-23T01:21:02.238Z,62.4
2018-09-23T01:21:52.641Z,62.4
2018-09-23T01:22:42.404Z,62.4
2018-09-23T01:23:32.449Z,62.4
2018-09-23T01:24:22.549Z,62.4
2018-09-23T01:25:12.374Z,62.4
2018-09-23T01:26:02.950Z,62.4
2018-09-23T01:26:52.853Z,62.4
2018-09-23T01:27:42.758Z,62.4
2018-09-23T01:28:32.560Z,62.4
2018-09-23T01:29:22.873Z,62.4
2018-09-23T01:30:13.255Z,62.4
2018-09-23T01:31:03.024Z,62.4
2018-09-23T01:31:53.135Z,62.4
2018-09-23T01:32:43.450Z,62.3
2018-09-23T01:33:33.495Z,62.3
2018-09-23T01:34:23.558Z,62.3
2018-09-23T01:35:13.433Z,62.3
2018-09-23T01:36:03.407Z,62.3
2018-09-23T01:36:52.625Z,62.3
2018-09-23T01:37:43.279Z,62.3
2018-09-23T01:38:33.030Z,62.3
2018-09-23T01:39:23.660Z,62.3
2018-09-23T01:40:13.405Z,62.3
2018-09-23T01:41:03.764Z,62.3
2018-09-23T01:41:54.288Z,62.3
2018-09-23T01:42:44.537Z,62.3
2018-09-23T01:43:33.993Z,62.3
2018-09-23T01:44:24.030Z,62.3
2018-09-23T01:45:14.374Z,62.3
2018-09-23T01:46:04.432Z,62.2
2018-09-23T01:46:54.499Z,62.2
2018-09-23T01:47:44.034Z,62.2
2018-09-23T01:48:34.652Z,62.2
2018-09-23T01:49:24.435Z,62.2
2018-09-23T01:50:14.738Z,62.2
2018-09-23T01:51:03.957Z,62.2
2018-09-23T01:51:54.881Z,62.2
2018-09-23T01:52:44.414Z,62.1
2018-09-23T01:53:35.260Z,62.2
2018-09-23T01:54:25.076Z,62.2
2018-09-23T01:55:14.849Z,62.1
2018-09-23T01:56:04.621Z,62.1
2018-09-23T01:56:54.396Z,62.1
2018-09-23T01:57:45.941Z,62.1
2018-09-23T01:58:35.512Z,62.1
2018-09-23T01:59:24.601Z,62.1
2018-09-23T02:00:15.251Z,62.1
2018-09-23T02:01:05.292Z,62.1
2018-09-23T02:01:55.073Z,62.1
2018-09-23T02:02:45.386Z,62.1
2018-09-23T02:03:35.484Z,62.1
2018-09-23T02:04:25.012Z,62.1
2018-09-23T02:05:15.608Z,62.1
2018-09-23T02:06:05.689Z,62.1
2018-09-23T02:06:55.443Z,62.1
2018-09-23T02:07:46.651Z,62.1
2018-09-23T02:08:36.501Z,62.1
2018-09-23T02:09:25.648Z,62
2018-09-23T02:10:15.971Z,62
2018-09-23T02:11:06.341Z,62
2018-09-23T02:11:56.105Z,62
2018-09-23T02:12:46.533Z,62
2018-09-23T02:13:35.403Z,62
2018-09-23T02:14:26.030Z,62
2018-09-23T02:15:16.642Z,62
2018-09-23T02:16:06.418Z,61.9
2018-09-23T02:16:56.470Z,61.9
2018-09-23T02:17:47.072Z,61.9
2018-09-23T02:18:36.657Z,61.9
2018-09-23T02:19:26.726Z,61.9
2018-09-23T02:20:16.765Z,61.9
2018-09-23T02:21:06.821Z,61.9
2018-09-23T02:21:56.585Z,61.9
2018-09-23T02:22:46.602Z,61.9
2018-09-23T02:23:37.760Z,61.9
2018-09-23T02:24:26.760Z,61.9
2018-09-23T02:25:16.833Z,61.9
2018-09-23T02:26:07.227Z,61.9
2018-09-23T02:26:57.252Z,61.9
2018-09-23T02:27:46.747Z,61.8
2018-09-23T02:28:37.092Z,61.9
2018-09-23T02:29:27.155Z,61.8
2018-09-23T02:30:17.529Z,61.8
2018-09-23T02:31:07.844Z,61.8
2018-09-23T02:31:57.956Z,61.8
2018-09-23T02:32:47.942Z,61.8
2018-09-23T02:33:37.454Z,61.8
2018-09-23T02:34:27.809Z,61.8
2018-09-23T02:35:17.580Z,61.8
2018-09-23T02:36:07.959Z,61.8
2018-09-23T02:36:57.746Z,61.8
2018-09-23T02:37:47.791Z,61.8
2018-09-23T02:38:37.855Z,61.8
2018-09-23T02:39:28.491Z,61.8
2018-09-23T02:40:18.267Z,61.8
2018-09-23T02:41:08.073Z,61.8
2018-09-23T02:41:58.703Z,61.8
2018-09-23T02:42:48.506Z,61.8
2018-09-23T02:43:38.536Z,61.7
2018-09-23T02:44:28.566Z,61.7
2018-09-23T02:45:18.378Z,61.7
2018-09-23T02:46:08.691Z,61.7
2018-09-23T02:46:58.478Z,61.7
2018-09-23T02:47:48.829Z,61.7
2018-09-23T02:48:39.427Z,61.6
2018-09-23T02:49:29.238Z,61.7
2018-09-23T02:50:19.253Z,61.7
2018-09-23T02:51:09.373Z,61.6
2018-09-23T02:51:59.155Z,61.6
2018-09-23T02:52:48.960Z,61.6
2018-09-23T02:53:39.220Z,61.6
2018-09-23T02:54:29.659Z,61.6
2018-09-23T02:55:19.704Z,61.6
2018-09-23T02:56:09.435Z,61.6
2018-09-23T02:56:59.238Z,61.6
2018-09-23T02:57:49.295Z,61.6
2018-09-23T02:58:39.639Z,61.6
2018-09-23T02:59:29.449Z,61.6
2018-09-23T03:00:20.055Z,61.6
2018-09-23T03:01:10.117Z,61.6
2018-09-23T03:01:59.880Z,61.6
2018-09-23T03:02:49.967Z,61.6
2018-09-23T03:03:40.635Z,61.5
2018-09-23T03:04:30.143Z,61.5
2018-09-23T03:05:19.884Z,61.6
2018-09-23T03:06:09.937Z,61.5
2018-09-23T03:07:00.559Z,61.5
2018-09-23T03:07:50.624Z,61.5
2018-09-23T03:08:40.392Z,61.5
2018-09-23T03:09:30.750Z,61.5
2018-09-23T03:10:20.522Z,61.5
2018-09-23T03:11:10.044Z,61.5
2018-09-23T03:12:00.362Z,61.4
2018-09-23T03:12:51.019Z,61.5
2018-09-23T03:13:40.777Z,61.4
2018-09-23T03:14:30.809Z,61.4
2018-09-23T03:15:20.928Z,61.4
2018-09-23T03:16:10.980Z,61.4
2018-09-23T03:17:01.356Z,61.4
2018-09-23T03:17:50.826Z,61.4
2018-09-23T03:18:41.177Z,61.4
2018-09-23T03:19:31.508Z,61.4
2018-09-23T03:20:21.001Z,61.4
2018-09-23T03:21:11.380Z,61.4
2018-09-23T03:22:01.463Z,61.4
2018-09-23T03:22:50.901Z,61.4
2018-09-23T03:23:41.277Z,61.4
2018-09-23T03:24:32.146Z,61.4
2018-09-23T03:25:22.448Z,61.4
2018-09-23T03:26:12.049Z,61.3
2018-09-23T03:27:01.474Z,61.3
2018-09-23T03:27:51.870Z,61.3
2018-09-23T03:28:42.260Z,61.3
2018-09-23T03:29:32.291Z,61.3
2018-09-23T03:30:23.481Z,61.3
2018-09-23T03:31:12.026Z,61.3
2018-09-23T03:32:02.281Z,61.3
2018-09-23T03:32:52.559Z,61.3
2018-09-23T03:33:42.291Z,61.3
2018-09-23T03:34:32.354Z,61.3
2018-09-23T03:35:22.736Z,61.3
2018-09-23T03:36:12.451Z,61.3
2018-09-23T03:37:02.259Z,61.3
2018-09-23T03:37:52.600Z,61.3
2018-09-23T03:38:42.675Z,61.3
2018-09-23T03:39:32.750Z,61.3
2018-09-23T03:40:23.350Z,61.2
2018-09-23T03:41:12.600Z,61.2
2018-09-23T03:42:02.918Z,61.2
2018-09-23T03:42:53.264Z,61.2
2018-09-23T03:43:43.057Z,61.2
2018-09-23T03:44:32.925Z,61.2
2018-09-23T03:45:23.428Z,61.2
2018-09-23T03:46:12.735Z,61.2
2018-09-23T03:47:02.457Z,61.1
2018-09-23T03:47:53.413Z,61.2
2018-09-23T03:48:43.455Z,61.2
2018-09-23T03:49:33.762Z,61.1
2018-09-23T03:50:23.233Z,61.1
2018-09-23T03:51:13.828Z,61.1
2018-09-23T03:52:03.959Z,61.1
2018-09-23T03:52:54.017Z,61.1
2018-09-23T03:53:43.502Z,61.1
2018-09-23T03:54:34.145Z,61.1
2018-09-23T03:55:24.195Z,61.1
2018-09-23T03:56:14.270Z,61.1
2018-09-23T03:57:04.319Z,61.1
2018-09-23T03:57:53.587Z,61.1
2018-09-23T03:58:44.472Z,61.1
2018-09-23T03:59:33.968Z,61.1
2018-09-23T04:00:24.834Z,61.1
2018-09-23T04:01:15.187Z,61.1
2018-09-23T04:02:03.602Z,61
2018-09-23T04:02:54.531Z,61
2018-09-23T04:03:43.403Z,61
2018-09-23T04:04:34.059Z,61
2018-09-23T04:05:24.980Z,61
2018-09-23T04:06:14.147Z,61
2018-09-23T04:07:04.826Z,61
2018-09-23T04:07:55.146Z,61
2018-09-23T04:08:44.984Z,61
2018-09-23T04:09:34.745Z,61
2018-09-23T04:10:24.790Z,60.9
2018-09-23T04:11:15.079Z,60.9
2018-09-23T04:12:05.273Z,60.9
2018-09-23T04:12:54.966Z,60.9
2018-09-23T04:13:45.314Z,60.9
2018-09-23T04:14:35.074Z,60.9
2018-09-23T04:15:25.434Z,60.9
2018-09-23T04:16:15.248Z,60.9
2018-09-23T04:17:05.852Z,60.9
2018-09-23T04:17:55.049Z,60.9
2018-09-23T04:18:46.013Z,60.9
2018-09-23T04:19:35.749Z,60.9
2018-09-23T04:20:25.818Z,60.9
2018-09-23T04:21:15.830Z,60.9
2018-09-23T04:22:06.533Z,60.9
2018-09-23T04:22:56.293Z,60.9
2018-09-23T04:23:46.061Z,60.9
2018-09-23T04:24:36.131Z,60.8
2018-09-23T04:25:26.184Z,60.8
2018-09-23T04:26:16.257Z,60.8
2018-09-23T04:27:06.656Z,60.8
2018-09-23T04:27:56.642Z,60.8
2018-09-23T04:28:46.441Z,60.8
2018-09-23T04:29:36.785Z,60.8
2018-09-23T04:30:26.068Z,60.8
2018-09-23T04:31:16.955Z,60.8
2018-09-23T04:32:07.303Z,60.8
2018-09-23T04:32:56.489Z,60.8
2018-09-23T04:33:47.105Z,60.8
2018-09-23T04:34:36.886Z,60.8
2018-09-23T04:35:27.247Z,60.8
2018-09-23T04:36:16.992Z,60.8
2018-09-23T04:37:07.334Z,60.8
2018-09-23T04:37:56.535Z,60.7
2018-09-23T04:38:47.209Z,60.7
2018-09-23T04:39:36.953Z,60.7
2018-09-23T04:40:27.054Z,60.7
2018-09-23T04:41:17.372Z,60.7
2018-09-23T04:42:07.741Z,60.7
2018-09-23T04:42:57.209Z,60.7
2018-09-23T04:43:47.571Z,60.7
2018-09-23T04:44:37.328Z,60.6
2018-09-23T04:45:27.717Z,60.6
2018-09-23T04:46:18.050Z,60.6
2018-09-23T04:47:07.824Z,60.6
2018-09-23T04:47:58.175Z,60.6
2018-09-23T04:48:48.016Z,60.6
2018-09-23T04:49:37.702Z,60.6
2018-09-23T04:50:28.358Z,60.6
2018-09-23T04:51:17.834Z,60.6
2018-09-23T04:52:08.477Z,60.6
2018-09-23T04:52:59.717Z,60.6
2018-09-23T04:53:48.362Z,60.6
2018-09-23T04:54:38.385Z,60.6
2018-09-23T04:55:29.141Z,60.6
2018-09-23T04:56:18.585Z,60.6
2018-09-23T04:57:08.564Z,60.6
2018-09-23T04:57:58.579Z,60.6
2018-09-23T04:58:48.938Z,60.5
2018-09-23T04:59:38.781Z,60.5
2018-09-23T05:00:28.799Z,60.5
2018-09-23T05:01:18.876Z,60.5
2018-09-23T05:02:08.964Z,60.5
2018-09-23T05:02:59.336Z,60.5
2018-09-23T05:03:49.111Z,60.5
2018-09-23T05:04:39.119Z,60.5
2018-09-23T05:05:29.200Z,60.4
2018-09-23T05:06:19.224Z,60.4
2018-09-23T05:07:09.340Z,60.4
2018-09-23T05:24:55.744Z,60.3
2018-09-23T05:25:45.811Z,60.3
2018-09-23T05:26:35.574Z,60.3
2018-09-23T05:27:25.446Z,60.3
2018-09-23T05:28:16.240Z,60.3
2018-09-23T05:29:06.010Z,60.3
2018-09-23T05:29:56.903Z,60.2
2018-09-23T05:30:46.427Z,60.3
2018-09-23T05:31:36.497Z,60.2
2018-09-23T05:32:26.265Z,60.2
2018-09-23T05:33:16.616Z,60.2
2018-09-23T05:34:06.660Z,60.2
2018-09-23T05:34:56.985Z,60.2
2018-09-23T05:35:46.235Z,60.1
2018-09-23T05:36:36.867Z,60.2
2018-09-23T05:37:26.635Z,60.1
2018-09-23T05:38:16.697Z,60.1
2018-09-23T05:39:06.762Z,60.1
2018-09-23T05:39:57.370Z,60.1
2018-09-23T05:40:47.172Z,60.1
2018-09-23T05:41:36.687Z,60.1
2018-09-23T05:42:27.294Z,60.1
2018-09-23T05:43:17.102Z,60.1
2018-09-23T05:44:08.452Z,60.1
2018-09-23T05:44:56.978Z,60.1
2018-09-23T05:45:47.627Z,60.1
2018-09-23T05:46:37.031Z,60.1
2018-09-23T05:47:26.537Z,60.1
2018-09-23T05:48:17.182Z,60.1
2018-09-23T05:49:07.516Z,60.1
2018-09-23T05:49:57.861Z,60
2018-09-23T05:50:47.914Z,60
2018-09-23T05:51:38.511Z,60
2018-09-23T05:52:28.086Z,60
2018-09-23T05:53:19.234Z,60
2018-09-23T05:54:08.214Z,60
2018-09-23T05:54:57.971Z,60
2018-09-23T05:55:48.035Z,60
2018-09-23T05:56:37.453Z,60
2018-09-23T05:57:28.134Z,59.9
2018-09-23T05:58:18.219Z,59.9
2018-09-23T05:59:08.001Z,59.9
2018-09-23T05:59:58.339Z,59.9
2018-09-23T06:00:48.458Z,59.9
2018-09-23T06:01:38.489Z,59.9
2018-09-23T06:02:28.838Z,59.9
2018-09-23T06:03:19.608Z,59.9
2018-09-23T06:04:08.660Z,59.9
2018-09-23T06:04:58.706Z,59.9
2018-09-23T06:05:48.606Z,59.9
2018-09-23T06:06:38.160Z,59.9
2018-09-23T06:07:28.965Z,59.9
2018-09-23T06:08:19.230Z,59.9
2018-09-23T06:09:08.758Z,59.9
2018-09-23T06:09:59.075Z,59.9
2018-09-23T06:10:49.423Z,59.9
2018-09-23T06:11:38.786Z,59.8
2018-09-23T06:12:29.283Z,59.8
2018-09-23T06:13:19.619Z,59.8
2018-09-23T06:14:09.725Z,59.8
2018-09-23T06:14:59.172Z,59.8
2018-09-23T06:15:49.213Z,59.8
2018-09-23T06:16:39.287Z,59.8
2018-09-23T06:17:29.945Z,59.8
2018-09-23T06:18:20.108Z,59.8
2018-09-23T06:19:09.252Z,59.8
2018-09-23T06:19:59.537Z,59.8
2018-09-23T06:20:49.626Z,59.8
2018-09-23T06:21:40.242Z,59.8
2018-09-23T06:22:30.017Z,59.8
2018-09-23T06:23:20.395Z,59.8
2018-09-23T06:24:10.442Z,59.8
2018-09-23T06:25:00.224Z,59.8
2018-09-23T06:25:50.639Z,59.8
2018-09-23T06:26:40.362Z,59.7
2018-09-23T06:27:30.170Z,59.8
2018-09-23T06:28:20.743Z,59.7
2018-09-23T06:29:10.542Z,59.7
2018-09-23T06:30:00.895Z,59.7
2018-09-23T06:30:50.990Z,59.7
2018-09-23T06:31:40.049Z,59.7
2018-09-23T06:32:31.089Z,59.7
2018-09-23T06:33:20.552Z,59.7
2018-09-23T06:34:12.207Z,59.6
2018-09-23T06:35:01.256Z,59.6
2018-09-23T06:35:51.313Z,59.6
2018-09-23T06:36:41.436Z,59.6
2018-09-23T06:37:31.444Z,59.6
2018-09-23T06:38:21.245Z,59.6
2018-09-23T06:39:11.579Z,59.6
2018-09-23T06:40:01.079Z,59.6
2018-09-23T06:40:51.717Z,59.6
2018-09-23T06:41:41.188Z,59.6
2018-09-23T06:42:31.630Z,59.6
2018-09-23T06:43:21.386Z,59.6
2018-09-23T06:44:11.735Z,59.5
2018-09-23T06:45:01.499Z,59.5
2018-09-23T06:45:52.787Z,59.5
2018-09-23T06:46:42.131Z,59.5
2018-09-23T06:47:32.400Z,59.5
2018-09-23T06:48:22.107Z,59.4
2018-09-23T06:49:12.350Z,59.5
2018-09-23T06:50:02.652Z,59.4
2018-09-23T06:50:51.590Z,59.4
2018-09-23T06:51:42.803Z,59.4
2018-09-23T06:52:32.350Z,59.4
2018-09-23T06:53:22.131Z,59.4
2018-09-23T06:54:12.743Z,59.4
2018-09-23T06:55:02.485Z,59.4
2018-09-23T06:55:52.840Z,59.4
2018-09-23T06:56:43.280Z,59.4
2018-09-23T06:57:32.436Z,59.4
2018-09-23T06:58:22.753Z,59.4
2018-09-23T06:59:12.566Z,59.4
2018-09-23T07:00:02.942Z,59.4
2018-09-23T07:00:52.698Z,59.4
2018-09-23T07:01:43.347Z,59.4
2018-09-23T07:02:33.323Z,59.4
2018-09-23T07:03:23.392Z,59.3
2018-09-23T07:04:12.762Z,59.3
2018-09-23T07:05:04.365Z,59.3
2018-09-23T07:05:53.010Z,59.3
2018-09-23T07:06:43.349Z,59.3
2018-09-23T07:07:33.727Z,59.3
2018-09-23T07:08:23.507Z,59.3
2018-09-23T07:09:13.526Z,59.3
2018-09-23T07:10:03.417Z,59.3
2018-09-23T07:10:53.481Z,59.3
2018-09-23T07:11:43.457Z,59.3
2018-09-23T07:12:33.809Z,59.3
2018-09-23T07:13:23.031Z,59.3
2018-09-23T07:14:13.622Z,59.3
2018-09-23T07:15:03.801Z,59.3
2018-09-23T07:15:53.581Z,59.2
2018-09-23T07:16:44.418Z,59.2
2018-09-23T07:17:34.237Z,59.2
2018-09-23T07:18:23.978Z,59.2
2018-09-23T07:19:14.666Z,59.2
2018-09-23T07:20:04.149Z,59.2
2018-09-23T07:20:54.463Z,59.1
2018-09-23T07:21:44.894Z,59.1
2018-09-23T07:22:34.103Z,59.1
2018-09-23T07:23:24.392Z,59.1
2018-09-23T07:24:15.643Z,59.1
2018-09-23T07:25:04.505Z,59.1
2018-09-23T07:25:54.863Z,59.1
2018-09-23T07:26:45.186Z,59.1
2018-09-23T07:27:34.689Z,59.1
2018-09-23T07:28:25.339Z,59.1
2018-09-23T07:29:15.646Z,59.1
2018-09-23T07:30:06.134Z,59.1
2018-09-23T07:30:55.507Z,59.1
2018-09-23T07:31:45.306Z,59.1
2018-09-23T07:32:35.636Z,59.1
2018-09-23T07:33:25.217Z,59.1
2018-09-23T07:34:15.210Z,59.1
2018-09-23T07:35:04.974Z,59.1
2018-09-23T07:35:55.571Z,59
2018-09-23T07:36:46.899Z,59
2018-09-23T07:37:34.651Z,59
2018-09-23T07:38:26.204Z,59
2018-09-23T07:39:16.174Z,59
2018-09-23T07:40:07.329Z,59
2018-09-23T07:40:55.696Z,58.9
2018-09-23T07:41:46.306Z,59
2018-09-23T07:42:36.082Z,58.9
2018-09-23T07:43:26.195Z,58.9
2018-09-23T07:44:16.233Z,58.9
2018-09-23T07:45:06.296Z,58.9
2018-09-23T07:45:56.341Z,58.9
2018-09-23T07:46:46.433Z,58.9
2018-09-23T07:47:37.001Z,58.9
2018-09-23T07:48:26.868Z,58.9
2018-09-23T07:49:16.723Z,58.9
2018-09-23T07:50:06.785Z,58.9
2018-09-23T07:50:56.435Z,58.9
2018-09-23T07:51:46.296Z,58.9
2018-09-23T07:52:36.628Z,58.9
2018-09-23T07:53:27.270Z,58.9
2018-09-23T07:54:17.009Z,58.9
2018-09-23T07:55:06.793Z,58.9
2018-09-23T07:55:56.805Z,58.8
2018-09-23T07:56:47.193Z,58.9
2018-09-23T07:57:37.265Z,58.8
2018-09-23T07:58:27.309Z,58.8
2018-09-23T07:59:17.146Z,58.8
2018-09-23T08:00:07.161Z,58.8
2018-09-23T08:00:57.484Z,58.8
2018-09-23T08:01:47.258Z,58.8
2018-09-23T08:02:37.910Z,58.8
2018-09-23T08:03:28.432Z,58.8
2018-09-23T08:04:17.700Z,58.8
2018-09-23T08:05:07.785Z,58.8
2018-09-23T08:05:58.455Z,58.8
2018-09-23T08:06:47.929Z,58.8
2018-09-23T08:07:38.000Z,58.8
2018-09-23T08:08:28.329Z,58.8
2018-09-23T08:09:18.409Z,58.8
2018-09-23T08:10:08.490Z,58.8
2018-09-23T08:10:58.510Z,58.7
2018-09-23T08:11:48.304Z,58.8
2018-09-23T08:12:40.542Z,58.7
2018-09-23T08:13:30.530Z,58.7
2018-09-23T08:14:22.826Z,58.7
2018-09-23T08:15:09.720Z,58.7
2018-09-23T08:15:58.662Z,58.7
2018-09-23T08:16:48.734Z,58.7
2018-09-23T08:17:39.019Z,58.7
2018-09-23T08:18:28.829Z,58.7
2018-09-23T08:19:19.197Z,58.6
2018-09-23T08:20:10.660Z,58.6
2018-09-23T08:21:00.298Z,58.6
2018-09-23T08:21:49.068Z,58.6
2018-09-23T08:22:39.150Z,58.6
2018-09-23T08:23:29.512Z,58.6
2018-09-23T08:24:19.616Z,58.6
2018-09-23T08:25:09.753Z,58.6
2018-09-23T08:30:09.987Z,58.5
2018-09-23T08:30:59.496Z,58.5
2018-09-23T08:31:50.151Z,58.5
2018-09-23T08:32:39.911Z,58.5
2018-09-23T08:33:30.032Z,58.5
2018-09-23T08:35:10.075Z,58.6
2018-09-23T08:36:00.433Z,58.8
2018-09-23T08:36:50.249Z,58.8
2018-09-23T08:37:40.305Z,58.8
2018-09-23T08:38:30.662Z,58.9
2018-09-23T08:39:20.428Z,59
2018-09-23T08:40:11.018Z,59.1
2018-09-23T08:41:00.814Z,59.1
2018-09-23T08:41:50.933Z,59.2
2018-09-23T08:42:40.761Z,59.3
2018-09-23T08:43:31.132Z,59.4
2018-09-23T08:44:21.124Z,59.4
2018-09-23T08:45:10.860Z,59.6
2018-09-23T08:46:00.648Z,59.6
2018-09-23T08:46:51.373Z,59.7
2018-09-23T08:47:41.478Z,59.8
2018-09-23T08:48:32.025Z,59.9
2018-09-23T08:49:21.795Z,60
2018-09-23T08:50:11.634Z,60.1
2018-09-23T08:51:01.598Z,60.1
2018-09-23T08:51:52.053Z,60.2
2018-09-23T08:52:42.012Z,60.3
2018-09-23T08:53:31.214Z,60.4
2018-09-23T08:54:21.800Z,60.4
2018-09-23T08:55:11.619Z,60.6
2018-09-23T08:56:01.675Z,60.6
2018-09-23T08:56:51.820Z,60.7
2018-09-23T08:57:41.934Z,60.8
2018-09-23T08:58:32.227Z,60.9
2018-09-23T08:59:21.909Z,60.9
2018-09-23T09:00:11.706Z,61.1
2018-09-23T09:01:02.327Z,61.1
2018-09-23T09:01:52.419Z,61.3
2018-09-23T09:02:42.554Z,61.4
2018-09-23T09:03:32.292Z,61.4
2018-09-23T09:04:22.344Z,61.6
2018-09-23T09:05:12.402Z,61.6
2018-09-23T09:06:03.007Z,61.8
2018-09-23T09:06:52.516Z,61.8
2018-09-23T09:07:42.559Z,61.9
2018-09-23T09:08:32.634Z,62
2018-09-23T09:09:23.094Z,62.1
2018-09-23T09:10:12.786Z,62.2
2018-09-23T09:11:02.622Z,62.3
2018-09-23T09:11:53.752Z,62.4
2018-09-23T09:12:42.413Z,62.5
2018-09-23T09:13:32.782Z,62.6
2018-09-23T09:14:22.869Z,62.6
2018-09-23T09:15:13.225Z,62.8
2018-09-23T09:16:03.510Z,62.8
2018-09-23T09:16:53.296Z,62.8
2018-09-23T09:17:43.651Z,62.9
2018-09-23T09:18:34.220Z,63.1
2018-09-23T09:19:23.185Z,63.2
2018-09-23T09:20:13.267Z,63.3
2018-09-23T09:21:03.875Z,63.3
2018-09-23T09:21:53.683Z,63.4
2018-09-23T09:22:43.763Z,63.6
2018-09-23T09:39:40.863Z,65.4
2018-09-23T09:40:30.588Z,65.6
2018-09-23T09:41:20.197Z,65.7
2018-09-23T09:42:10.276Z,65.8
2018-09-23T09:43:00.549Z,65.9
2018-09-23T09:43:50.945Z,65.9
2018-09-23T09:44:40.767Z,66.1
2018-09-23T09:45:29.929Z,66.1
2018-09-23T09:46:20.554Z,66.3
2018-09-23T09:47:10.382Z,66.3
2018-09-23T09:48:00.367Z,66.4
2018-09-23T09:48:50.796Z,66.5
2018-09-23T09:49:41.086Z,66.6
2018-09-23T09:50:30.605Z,66.6
2018-09-23T09:51:21.004Z,66.8
2018-09-23T09:52:11.059Z,66.8
2018-09-23T09:53:00.862Z,66.9
2018-09-23T09:53:51.191Z,67
2018-09-23T09:54:41.498Z,67.1
2018-09-23T09:55:32.652Z,67.2
2018-09-23T09:56:21.422Z,67.3
2018-09-23T09:57:11.702Z,67.3
2018-09-23T09:58:01.474Z,67.4
2018-09-23T09:58:51.256Z,67.4
2018-09-23T09:59:41.918Z,67.6
2018-09-23T10:00:31.381Z,67.6
2018-09-23T10:01:21.460Z,67.7
2018-09-23T10:02:11.773Z,67.8
2018-09-23T10:03:02.371Z,67.9
2018-09-23T10:03:52.573Z,67.9
2018-09-23T10:04:42.266Z,68.1
2018-09-23T10:05:32.341Z,68.1
2018-09-23T10:06:21.816Z,68.2
2018-09-23T10:07:11.630Z,68.3
2018-09-23T10:08:02.057Z,68.4
2018-09-23T10:08:52.112Z,68.4
2018-09-23T10:09:43.014Z,68.5
2018-09-23T10:10:32.542Z,68.6
2018-09-23T10:11:22.362Z,68.7
2018-09-23T10:12:12.760Z,68.8
2018-09-23T10:13:02.627Z,68.9
2018-09-23T10:13:52.794Z,69
2018-09-23T10:14:42.751Z,69.1
2018-09-23T10:15:31.953Z,69.1
2018-09-23T10:16:23.141Z,69.3
2018-09-23T10:17:13.193Z,69.3
2018-09-23T10:18:03.030Z,69.4
2018-09-23T10:18:53.055Z,69.4
2018-09-23T10:19:43.039Z,69.6
2018-09-23T10:20:33.480Z,69.6
2018-09-23T10:21:23.264Z,69.7
2018-09-23T10:22:13.619Z,69.8
2018-09-23T10:23:04.582Z,69.9
2018-09-23T10:23:54.286Z,69.9
2018-09-23T10:24:44.062Z,70
2018-09-23T10:25:33.304Z,70.1
2018-09-23T10:26:23.634Z,70.2
2018-09-23T10:27:13.108Z,70.3
2018-09-23T10:28:03.762Z,70.4
2018-09-23T10:28:53.579Z,70.5
2018-09-23T10:29:44.297Z,70.6
2018-09-23T10:30:34.217Z,70.6
2018-09-23T10:31:25.542Z,70.8
2018-09-23T10:32:14.101Z,70.8
2018-09-23T10:33:04.188Z,70.9
2018-09-23T10:33:54.219Z,70.9
2018-09-23T10:34:44.118Z,71
2018-09-23T10:35:33.551Z,71.1
2018-09-23T10:36:24.734Z,71.2
2018-09-23T10:37:14.773Z,71.3
2018-09-23T10:38:04.564Z,71.3
2018-09-23T10:38:53.753Z,71.4
2018-09-23T10:39:44.711Z,71.5
2018-09-23T10:40:35.018Z,71.6
2018-09-23T10:41:25.042Z,71.7
2018-09-23T10:42:14.346Z,71.8
2018-09-23T10:43:05.213Z,71.8
2018-09-23T10:43:55.256Z,71.9
2018-09-23T10:44:45.058Z,71.9
2018-09-23T10:45:35.073Z,72.1
2018-09-23T10:46:24.698Z,72.2
2018-09-23T10:47:15.673Z,72.3
2018-09-23T10:48:05.498Z,72.3
2018-09-23T10:48:55.482Z,72.4
2018-09-23T10:49:45.789Z,72.5
2018-09-23T10:50:35.894Z,72.6
2018-09-23T10:51:25.646Z,72.6
2018-09-23T10:52:15.642Z,72.8
2018-09-23T10:53:05.956Z,72.8
2018-09-23T10:53:55.735Z,72.9
2018-09-23T10:54:45.805Z,72.9
2018-09-23T10:55:35.749Z,73
2018-09-23T10:56:26.237Z,73.1
2018-09-23T10:57:16.289Z,73.1
2018-09-23T10:58:05.832Z,73.2
2018-09-23T10:58:56.183Z,73.3
2018-09-23T10:59:46.509Z,73.3
2018-09-23T11:00:36.537Z,73.4
2018-09-23T11:01:26.032Z,73.4
2018-09-23T11:02:16.137Z,73.5
2018-09-23T11:03:06.417Z,73.6
2018-09-23T11:03:56.960Z,73.7
2018-09-23T11:04:45.074Z,73.8
2018-09-23T11:05:36.369Z,73.8
2018-09-23T11:06:26.454Z,73.9
2018-09-23T11:07:17.300Z,73.9
2018-09-23T11:08:06.465Z,74
2018-09-23T11:08:56.686Z,74.1
2018-09-23T11:09:46.928Z,74.2
2018-09-23T11:10:36.556Z,74.2
2018-09-23T11:11:27.089Z,74.3
2018-09-23T11:12:17.454Z,74.3
2018-09-23T11:13:07.486Z,74.4
2018-09-23T11:13:57.283Z,74.5
2018-09-23T11:14:47.050Z,74.5
2018-09-23T11:15:37.358Z,74.6
2018-09-23T11:16:27.438Z,74.6
2018-09-23T11:17:17.814Z,74.7
2018-09-23T11:18:06.762Z,74.8
2018-09-23T11:18:57.360Z,74.9
2018-09-23T11:19:47.430Z,74.9
2018-09-23T11:20:37.760Z,75
2018-09-23T11:21:27.595Z,75
2018-09-23T11:22:18.177Z,75.1
2018-09-23T11:23:07.944Z,75.2
2018-09-23T11:23:57.805Z,75.2
2018-09-23T11:24:49.018Z,75.3
2018-09-23T11:25:37.034Z,75.3
2018-09-23T11:26:28.823Z,75.4
2018-09-23T11:27:17.729Z,75.4
2018-09-23T11:28:08.103Z,75.5
2018-09-23T11:28:58.769Z,75.6
2018-09-23T11:29:48.475Z,75.6
2018-09-23T11:30:39.101Z,75.6
2018-09-23T11:31:28.942Z,75.7
2018-09-23T11:32:18.397Z,75.7
2018-09-23T11:33:09.078Z,75.7
2018-09-23T11:33:59.392Z,75.8
2018-09-23T11:34:48.861Z,75.9
2018-09-23T11:35:38.944Z,76
2018-09-23T11:36:29.425Z,76
2018-09-23T11:37:18.793Z,76.1
2018-09-23T11:38:09.155Z,76.1
2018-09-23T11:38:58.433Z,76.2
2018-09-23T11:39:49.781Z,76.2
2018-09-23T11:40:39.853Z,76.3
2018-09-23T11:41:29.752Z,76.3
2018-09-23T11:42:19.741Z,76.3
2018-09-23T11:43:08.978Z,76.4
2018-09-23T11:43:59.606Z,76.4
2018-09-23T11:44:48.489Z,76.4
2018-09-23T11:45:39.446Z,76.5
2018-09-23T11:46:29.496Z,76.5
2018-09-23T11:47:19.284Z,76.5
2018-09-23T11:48:09.623Z,76.6
2018-09-23T11:49:00.280Z,76.6
2018-09-23T11:49:50.080Z,76.7
2018-09-23T11:50:40.698Z,76.7
2018-09-23T11:51:30.569Z,76.8
2018-09-23T11:52:20.018Z,76.8
2018-09-23T11:53:10.383Z,76.8
2018-09-23T11:54:00.603Z,76.8
2018-09-23T11:54:50.658Z,76.9
2018-09-23T11:55:40.796Z,76.9
2018-09-23T11:56:30.558Z,77
2018-09-23T11:57:20.568Z,77.1
2018-09-23T11:58:10.943Z,77.1
2018-09-23T11:59:01.863Z,77.1
2018-09-23T11:59:51.100Z,77.1
2018-09-23T12:00:40.943Z,77.1
2018-09-23T12:01:31.342Z,77.2
2018-09-23T12:02:22.369Z,77.2
2018-09-23T12:03:11.086Z,77.3
2018-09-23T12:04:01.233Z,77.3
2018-09-23T12:04:51.848Z,77.3
2018-09-23T12:05:40.697Z,77.4